createdAt,value
2019-02-11T00:00:53.888Z,5.28
2019-02-11T00:01:53.849Z,5.16
2019-02-11T00:02:53.842Z,5.34
2019-02-11T00:03:59.597Z,5.23
2019-02-11T00:04:53.834Z,5.34
2019-02-11T00:05:53.859Z,5.30
2019-02-11T00:06:53.828Z,5.30
2019-02-11T00:07:53.822Z,5.17
2019-02-11T00:08:53.816Z,5.20
2019-02-11T00:09:53.813Z,5.10
2019-02-11T00:10:53.836Z,5.12
2019-02-11T00:11:53.801Z,5.17
2019-02-11T00:12:53.801Z,5.10
2019-02-11T00:13:53.792Z,5.12
2019-02-11T00:14:53.789Z,4.99
2019-02-11T00:15:53.825Z,5.04
2019-02-11T00:16:53.782Z,5.07
2019-02-11T00:17:53.774Z,4.99
2019-02-11T00:18:53.770Z,5.02
2019-02-11T00:19:53.765Z,4.98
2019-02-11T00:20:53.788Z,5.01
2019-02-11T00:21:53.758Z,5.04
2019-02-11T00:22:53.754Z,4.98
2019-02-11T00:23:53.749Z,5.01
2019-02-11T00:24:53.743Z,4.96
2019-02-11T00:25:53.767Z,4.96
2019-02-11T00:26:53.762Z,4.98
2019-02-11T00:27:53.730Z,5.01
2019-02-11T00:28:53.726Z,5.01
2019-02-11T00:29:53.717Z,5.05
2019-02-11T00:30:53.715Z,5.07
2019-02-11T00:31:53.737Z,4.99
2019-02-11T00:32:53.790Z,4.94
2019-02-11T00:33:53.702Z,4.95
2019-02-11T00:34:53.698Z,4.89
2019-02-11T00:35:53.699Z,4.94
2019-02-11T00:36:53.722Z,4.92
2019-02-11T00:37:53.682Z,4.79
2019-02-11T00:38:53.682Z,4.83
2019-02-11T00:39:53.672Z,4.84
2019-02-11T00:40:53.655Z,4.76
2019-02-11T00:41:53.693Z,4.69
2019-02-11T00:42:53.661Z,4.67
2019-02-11T00:43:53.655Z,4.62
2019-02-11T00:44:53.651Z,4.61
2019-02-11T00:45:53.645Z,4.61
2019-02-11T00:46:53.671Z,4.59
2019-02-11T00:47:53.633Z,4.61
2019-02-11T00:48:53.630Z,4.64
2019-02-11T00:49:53.626Z,4.57
2019-02-11T00:50:53.621Z,4.58
2019-02-11T00:51:53.650Z,4.67
2019-02-11T00:52:53.611Z,4.70
2019-02-11T00:53:53.603Z,4.67
2019-02-11T00:54:53.600Z,4.57
2019-02-11T00:55:53.597Z,4.57
2019-02-11T00:56:53.621Z,4.64
2019-02-11T00:57:53.586Z,4.62
2019-02-11T00:58:53.583Z,4.64
2019-02-11T00:59:53.577Z,4.64
2019-02-11T01:00:53.575Z,4.55
2019-02-11T01:01:53.596Z,4.52
2019-02-11T01:02:53.591Z,4.51
2019-02-11T01:03:53.560Z,4.46
2019-02-11T01:04:53.553Z,4.50
2019-02-11T01:05:53.556Z,4.44
2019-02-11T01:06:53.540Z,4.46
2019-02-11T01:07:53.568Z,4.50
2019-02-11T01:08:53.537Z,4.37
2019-02-11T01:09:53.525Z,4.40
2019-02-11T01:10:53.521Z,4.44
2019-02-11T01:11:53.543Z,4.40
2019-02-11T01:12:53.518Z,4.39
2019-02-11T01:13:53.506Z,4.42
2019-02-11T01:14:53.510Z,4.37
2019-02-11T01:15:53.496Z,4.33
2019-02-11T01:16:53.519Z,4.28
2019-02-11T01:17:53.488Z,4.25
2019-02-11T01:18:53.479Z,4.18
2019-02-11T01:19:53.476Z,4.18
2019-02-11T01:20:53.472Z,4.14
2019-02-11T01:21:53.495Z,4.21
2019-02-11T01:22:53.462Z,4.18
2019-02-11T01:23:53.457Z,4.14
2019-02-11T01:24:53.452Z,4.06
2019-02-11T01:25:53.444Z,4.08
2019-02-11T01:26:53.468Z,4.10
2019-02-11T01:27:53.434Z,4.04
2019-02-11T01:28:53.433Z,3.89
2019-02-11T01:29:53.427Z,4.03
2019-02-11T01:30:53.420Z,4.01
2019-02-11T01:31:53.445Z,3.89
2019-02-11T01:32:53.411Z,4.04
2019-02-11T01:33:53.407Z,3.89
2019-02-11T01:34:53.399Z,3.86
2019-02-11T01:35:53.396Z,3.90
2019-02-11T01:36:53.416Z,3.86
2019-02-11T01:37:53.385Z,3.90
2019-02-11T01:38:53.383Z,3.92
2019-02-11T01:39:53.371Z,3.82
2019-02-11T01:40:53.379Z,3.89
2019-02-11T01:41:53.388Z,3.78
2019-02-11T01:42:53.354Z,3.68
2019-02-11T01:43:53.352Z,3.82
2019-02-11T01:44:53.350Z,3.75
2019-02-11T01:45:53.340Z,3.83
2019-02-11T01:46:53.363Z,3.71
2019-02-11T01:47:53.366Z,3.71
2019-02-11T01:48:53.329Z,3.72
2019-02-11T01:49:53.318Z,3.68
2019-02-11T01:50:53.320Z,3.68
2019-02-11T01:51:53.311Z,3.60
2019-02-11T01:52:53.329Z,3.67
2019-02-11T01:53:53.300Z,3.68
2019-02-11T01:54:53.292Z,3.65
2019-02-11T01:55:53.286Z,3.54
2019-02-11T01:56:53.283Z,3.52
2019-02-11T01:57:53.302Z,3.47
2019-02-11T01:58:53.273Z,3.54
2019-02-11T01:59:53.266Z,3.50
2019-02-11T02:00:53.260Z,3.53
2019-02-11T02:01:53.255Z,3.44
2019-02-11T02:02:53.277Z,3.46
2019-02-11T02:03:53.242Z,3.52
2019-02-11T02:04:53.439Z,3.46
2019-02-11T02:05:53.230Z,3.40
2019-02-11T02:06:53.229Z,3.31
2019-02-11T02:07:53.253Z,3.46
2019-02-11T02:08:53.214Z,3.33
2019-02-11T02:09:53.211Z,3.49
2019-02-11T02:10:53.206Z,3.33
2019-02-11T02:11:53.204Z,3.36
2019-02-11T02:12:53.222Z,3.43
2019-02-11T02:13:53.191Z,3.42
2019-02-11T02:14:53.186Z,3.36
2019-02-11T02:15:53.171Z,3.42
2019-02-11T02:16:53.171Z,3.40
2019-02-11T02:17:53.195Z,3.39
2019-02-11T02:18:53.158Z,3.36
2019-02-11T02:19:53.155Z,3.33
2019-02-11T02:20:53.142Z,3.39
2019-02-11T02:21:53.151Z,3.39
2019-02-11T02:22:53.138Z,3.36
2019-02-11T02:23:53.182Z,3.27
2019-02-11T02:24:53.126Z,3.34
2019-02-11T02:25:53.113Z,3.36
2019-02-11T02:26:53.118Z,3.36
2019-02-11T02:27:53.146Z,3.27
2019-02-11T02:28:53.096Z,3.27
2019-02-11T02:29:53.098Z,3.27
2019-02-11T02:30:53.090Z,3.31
2019-02-11T02:31:53.083Z,3.27
2019-02-11T02:32:53.118Z,3.30
2019-02-11T02:33:53.075Z,3.24
2019-02-11T02:34:53.070Z,3.24
2019-02-11T02:35:53.066Z,3.27
2019-02-11T02:36:53.062Z,3.23
2019-02-11T02:37:53.090Z,3.31
2019-02-11T02:38:53.046Z,3.27
2019-02-11T02:39:53.048Z,3.30
2019-02-11T02:40:53.033Z,3.23
2019-02-11T02:41:53.034Z,3.20
2019-02-11T02:42:53.062Z,3.27
2019-02-11T02:43:55.772Z,3.28
2019-02-11T02:44:53.009Z,3.33
2019-02-11T02:45:53.010Z,3.25
2019-02-11T02:46:52.996Z,3.30
2019-02-11T02:47:52.997Z,3.30
2019-02-11T02:48:53.016Z,3.27
2019-02-11T02:49:52.987Z,3.25
2019-02-11T02:50:52.976Z,3.24
2019-02-11T02:51:52.969Z,3.15
2019-02-11T02:52:52.970Z,3.21
2019-02-11T02:53:52.967Z,3.24
2019-02-11T02:54:52.992Z,3.15
2019-02-11T02:55:52.951Z,3.18
2019-02-11T02:56:52.946Z,3.18
2019-02-11T02:57:52.980Z,3.15
2019-02-11T02:58:52.933Z,3.13
2019-02-11T02:59:52.926Z,3.03
2019-02-11T03:00:52.922Z,3.07
2019-02-11T03:01:52.917Z,3.09
2019-02-11T03:02:52.904Z,3.07
2019-02-11T03:03:52.948Z,2.94
2019-02-11T03:04:52.903Z,3.10
2019-02-11T03:05:53.163Z,3.09
2019-02-11T03:06:52.892Z,3.03
2019-02-11T03:07:52.885Z,3.05
2019-02-11T03:08:52.917Z,3.02
2019-02-11T03:09:52.904Z,3.07
2019-02-11T03:10:52.859Z,2.97
2019-02-11T03:11:52.862Z,2.97
2019-02-11T03:12:52.860Z,2.91
2019-02-11T03:13:52.880Z,2.92
2019-02-11T03:14:52.841Z,2.89
2019-02-11T03:15:52.844Z,2.94
2019-02-11T03:16:52.828Z,2.89
2019-02-11T03:17:52.829Z,2.89
2019-02-11T03:18:52.858Z,2.95
2019-02-11T03:19:52.816Z,2.91
2019-02-11T03:20:52.802Z,2.91
2019-02-11T03:21:52.803Z,2.82
2019-02-11T03:22:52.797Z,2.84
2019-02-11T03:23:52.828Z,2.82
2019-02-11T03:24:52.785Z,2.82
2019-02-11T03:25:52.802Z,2.76
2019-02-11T03:26:52.775Z,2.73
2019-02-11T03:27:52.769Z,2.74
2019-02-11T03:28:52.768Z,2.76
2019-02-11T03:29:52.794Z,2.77
2019-02-11T03:30:52.747Z,2.74
2019-02-11T03:31:52.745Z,2.82
2019-02-11T03:32:52.741Z,2.77
2019-02-11T03:33:52.761Z,2.74
2019-02-11T03:34:52.719Z,2.74
2019-02-11T03:35:52.722Z,2.82
2019-02-11T03:36:52.727Z,2.84
2019-02-11T03:37:52.706Z,2.71
2019-02-11T03:38:52.699Z,2.85
2019-02-11T03:39:52.740Z,2.76
2019-02-11T03:40:52.687Z,2.77
2019-02-11T03:41:52.676Z,2.88
2019-02-11T03:42:52.677Z,2.79
2019-02-11T03:43:52.729Z,2.73
2019-02-11T03:44:52.668Z,2.79
2019-02-11T03:45:52.664Z,2.77
2019-02-11T03:46:52.687Z,2.77
2019-02-11T03:47:52.651Z,2.85
2019-02-11T03:48:52.682Z,2.82
2019-02-11T03:49:52.636Z,2.84
2019-02-11T03:50:52.638Z,2.84
2019-02-11T03:51:52.692Z,2.82
2019-02-11T03:52:52.628Z,2.76
2019-02-11T03:53:52.648Z,2.79
2019-02-11T03:54:52.639Z,2.81
2019-02-11T03:55:52.603Z,2.79
2019-02-11T03:56:52.597Z,2.77
2019-02-11T03:57:52.592Z,2.74
2019-02-11T03:58:52.581Z,2.76
2019-02-11T03:59:52.620Z,2.76
2019-02-11T04:00:52.566Z,2.74
2019-02-11T04:01:52.563Z,2.76
2019-02-11T04:02:52.556Z,2.79
2019-02-11T04:03:52.582Z,2.84
2019-02-11T04:04:52.550Z,2.71
2019-02-11T04:05:52.542Z,2.81
2019-02-11T04:06:52.527Z,2.77
2019-02-11T04:07:52.530Z,2.89
2019-02-11T04:08:52.527Z,2.89
2019-02-11T04:09:52.554Z,2.81
2019-02-11T04:10:52.513Z,2.88
2019-02-11T04:11:52.505Z,2.82
2019-02-11T04:12:52.498Z,2.77
2019-02-11T04:13:52.516Z,2.84
2019-02-11T04:14:52.490Z,2.81
2019-02-11T04:15:52.517Z,2.81
2019-02-11T04:16:52.479Z,2.77
2019-02-11T04:17:52.477Z,2.77
2019-02-11T04:18:52.492Z,2.87
2019-02-11T04:19:52.460Z,2.82
2019-02-11T04:20:52.448Z,2.74
2019-02-11T04:21:52.474Z,2.79
2019-02-11T04:22:52.441Z,2.81
2019-02-11T04:23:52.446Z,2.88
2019-02-11T04:24:52.466Z,2.87
2019-02-11T04:25:52.421Z,2.91
2019-02-11T04:26:52.413Z,2.91
2019-02-11T04:27:52.455Z,2.91
2019-02-11T04:28:52.449Z,2.89
2019-02-11T04:29:52.396Z,2.84
2019-02-11T04:30:52.393Z,2.92
2019-02-11T04:31:52.413Z,2.94
2019-02-11T04:32:52.385Z,2.92
2019-02-11T04:33:52.429Z,2.81
2019-02-11T04:34:52.398Z,2.84
2019-02-11T04:35:52.357Z,2.77
2019-02-11T04:36:52.356Z,2.81
2019-02-11T04:37:52.354Z,2.89
2019-02-11T04:38:52.342Z,2.89
2019-02-11T04:39:52.383Z,2.92
2019-02-11T04:40:52.334Z,2.89
2019-02-11T04:41:52.323Z,2.97
2019-02-11T04:42:52.320Z,2.91
2019-02-11T04:43:52.322Z,3.00
2019-02-11T04:44:52.330Z,2.92
2019-02-11T04:45:52.329Z,2.91
2019-02-11T04:46:52.301Z,2.92
2019-02-11T04:47:52.287Z,2.91
2019-02-11T04:48:52.288Z,2.97
2019-02-11T04:49:52.288Z,2.98
2019-02-11T04:50:52.271Z,3.00
2019-02-11T04:51:52.297Z,2.92
2019-02-11T04:52:52.259Z,2.91
2019-02-11T04:53:52.264Z,2.92
2019-02-11T04:54:52.251Z,3.00
2019-02-11T04:55:52.245Z,2.92
2019-02-11T04:56:52.237Z,2.94
2019-02-11T04:57:52.268Z,2.91
2019-02-11T04:58:52.225Z,2.91
2019-02-11T04:59:52.250Z,2.95
2019-02-11T05:00:52.218Z,3.02
2019-02-11T05:01:52.205Z,2.97
2019-02-11T05:02:52.200Z,2.92
2019-02-11T05:03:53.972Z,2.97
2019-02-11T05:04:52.984Z,2.98
2019-02-11T05:05:52.193Z,2.98
2019-02-11T05:06:52.175Z,3.03
2019-02-11T05:07:52.170Z,3.03
2019-02-11T05:08:52.167Z,2.98
2019-02-11T05:09:52.198Z,3.00
2019-02-11T05:10:52.163Z,2.97
2019-02-11T05:11:52.152Z,2.98
2019-02-11T05:12:52.139Z,2.95
2019-02-11T05:13:52.138Z,3.02
2019-02-11T05:14:52.136Z,3.06
2019-02-11T05:15:52.168Z,2.95
2019-02-11T05:16:52.118Z,2.97
2019-02-11T05:17:52.113Z,3.00
2019-02-11T05:18:52.108Z,3.03
2019-02-11T05:19:52.146Z,3.03
2019-02-11T05:20:52.101Z,3.09
2019-02-11T05:21:52.128Z,3.05
2019-02-11T05:22:52.085Z,3.09
2019-02-11T05:23:52.073Z,3.09
2019-02-11T05:24:52.075Z,3.00
2019-02-11T05:25:52.068Z,3.07
2019-02-11T05:26:52.072Z,3.16
2019-02-11T05:27:52.119Z,3.12
2019-02-11T05:28:52.047Z,3.03
2019-02-11T05:29:52.043Z,3.07
2019-02-11T05:30:52.036Z,3.18
2019-02-11T05:31:52.030Z,3.12
2019-02-11T05:32:52.056Z,3.10
2019-02-11T05:33:52.052Z,3.16
2019-02-11T05:34:52.017Z,3.16
2019-02-11T05:35:52.016Z,3.18
2019-02-11T05:36:52.003Z,3.12
2019-02-11T05:37:52.000Z,3.23
2019-02-11T05:38:51.988Z,3.21
2019-02-11T05:39:52.025Z,3.21
2019-02-11T05:40:51.983Z,3.20
2019-02-11T05:41:52.010Z,3.23
2019-02-11T05:42:51.966Z,3.28
2019-02-11T05:43:51.965Z,3.24
2019-02-11T05:44:54.235Z,3.21
2019-02-11T05:45:51.999Z,3.24
2019-02-11T05:46:51.940Z,3.24
2019-02-11T05:47:51.939Z,3.24
2019-02-11T05:48:51.936Z,3.13
2019-02-11T05:49:51.923Z,3.23
2019-02-11T05:50:51.926Z,3.21
2019-02-11T05:51:51.952Z,3.27
2019-02-11T05:52:51.915Z,3.30
2019-02-11T05:53:51.906Z,3.27
2019-02-11T05:54:51.901Z,3.30
2019-02-11T05:55:51.902Z,3.28
2019-02-11T05:56:51.927Z,3.24
2019-02-11T05:57:51.887Z,3.23
2019-02-11T05:58:51.879Z,3.28
2019-02-11T05:59:51.867Z,3.27
2019-02-11T06:00:51.865Z,3.24
2019-02-11T06:01:51.895Z,3.34
2019-02-11T06:02:51.863Z,3.40
2019-02-11T06:03:51.845Z,3.36
2019-02-11T06:04:51.839Z,3.40
2019-02-11T06:05:51.832Z,3.43
2019-02-11T06:06:51.865Z,3.34
2019-02-11T06:07:51.823Z,3.39
2019-02-11T06:08:51.821Z,3.50
2019-02-11T06:09:51.822Z,3.44
2019-02-11T06:10:51.816Z,3.44
2019-02-11T06:11:51.838Z,3.42
2019-02-11T06:12:51.839Z,3.47
2019-02-11T06:13:51.795Z,3.44
2019-02-11T06:14:51.782Z,3.43
2019-02-11T06:15:51.786Z,3.52
2019-02-11T06:16:51.819Z,3.44
2019-02-11T06:17:51.768Z,3.46
2019-02-11T06:18:51.765Z,3.44
2019-02-11T06:19:51.759Z,3.49
2019-02-11T06:20:51.758Z,3.57
2019-02-11T06:21:51.793Z,3.54
2019-02-11T06:22:51.737Z,3.53
2019-02-11T06:23:51.740Z,3.52
2019-02-11T06:24:51.731Z,3.44
2019-02-11T06:25:51.733Z,3.42
2019-02-11T06:26:51.760Z,3.39
2019-02-11T06:27:51.715Z,3.50
2019-02-11T06:28:51.712Z,3.50
2019-02-11T06:29:51.696Z,3.60
2019-02-11T06:30:51.702Z,3.60
2019-02-11T06:31:51.727Z,3.53
2019-02-11T06:32:51.694Z,3.54
2019-02-11T06:33:51.680Z,3.50
2019-02-11T06:34:51.681Z,3.49
2019-02-11T06:35:51.673Z,3.44
2019-02-11T06:36:51.666Z,3.40
2019-02-11T06:37:51.700Z,3.42
2019-02-11T06:38:51.648Z,3.49
2019-02-11T06:39:51.653Z,3.44
2019-02-11T06:40:51.637Z,3.47
2019-02-11T06:41:51.665Z,3.46
2019-02-11T06:42:51.633Z,3.44
2019-02-11T06:43:51.667Z,3.47
2019-02-11T06:44:51.614Z,3.44
2019-02-11T06:45:51.616Z,3.43
2019-02-11T06:46:51.606Z,3.40
2019-02-11T06:47:51.644Z,3.50
2019-02-11T06:48:51.593Z,3.43
2019-02-11T06:49:51.600Z,3.50
2019-02-11T06:50:51.589Z,3.49
2019-02-11T06:51:51.584Z,3.52
2019-02-11T06:52:51.606Z,3.50
2019-02-11T06:53:51.571Z,3.58
2019-02-11T06:54:51.567Z,3.50
2019-02-11T06:55:51.553Z,3.54
2019-02-11T06:56:51.670Z,3.52
2019-02-11T06:57:51.548Z,3.64
2019-02-11T06:58:51.573Z,3.60
2019-02-11T06:59:51.535Z,3.58
2019-02-11T07:00:51.531Z,3.65
2019-02-11T07:01:51.525Z,3.61
2019-02-11T07:02:51.558Z,3.52
2019-02-11T07:03:51.511Z,3.61
2019-02-11T07:04:51.509Z,3.61
2019-02-11T07:05:51.496Z,3.58
2019-02-11T07:06:51.495Z,3.60
2019-02-11T07:07:51.530Z,3.50
2019-02-11T07:08:51.530Z,3.57
2019-02-11T07:09:51.488Z,3.58
2019-02-11T07:10:55.757Z,3.64
2019-02-11T07:11:51.469Z,3.64
2019-02-11T07:12:51.505Z,3.60
2019-02-11T07:13:51.983Z,3.76
2019-02-11T07:14:51.448Z,3.64
2019-02-11T07:15:51.441Z,3.68
2019-02-11T07:16:51.436Z,3.70
2019-02-11T07:17:51.670Z,3.65
2019-02-11T07:18:51.441Z,3.76
2019-02-11T07:19:51.427Z,3.79
2019-02-11T07:20:51.491Z,3.79
2019-02-11T07:21:51.412Z,3.80
2019-02-11T07:22:51.449Z,3.80
2019-02-11T07:23:51.402Z,3.89
2019-02-11T07:24:51.401Z,3.89
2019-02-11T07:25:51.392Z,3.94
2019-02-11T07:26:51.385Z,3.92
2019-02-11T07:27:51.417Z,3.90
2019-02-11T07:28:51.414Z,3.98
2019-02-11T07:29:51.368Z,3.88
2019-02-11T07:30:51.499Z,3.92
2019-02-11T07:31:51.359Z,3.90
2019-02-11T07:32:51.393Z,3.90
2019-02-11T07:33:51.346Z,3.89
2019-02-11T07:34:51.348Z,3.97
2019-02-11T07:35:51.371Z,3.94
2019-02-11T07:36:51.861Z,3.97
2019-02-11T07:37:51.369Z,3.96
2019-02-11T07:38:51.319Z,4.03
2019-02-11T07:39:51.318Z,3.97
2019-02-11T07:40:51.410Z,3.96
2019-02-11T07:41:51.307Z,3.98
2019-02-11T07:42:51.327Z,3.90
2019-02-11T07:43:51.342Z,3.90
2019-02-11T07:44:51.505Z,3.96
2019-02-11T07:45:51.284Z,3.97
2019-02-11T07:46:51.279Z,3.92
2019-02-11T07:47:51.303Z,4.06
2019-02-11T07:48:51.272Z,3.89
2019-02-11T07:49:51.304Z,4.06
2019-02-11T07:50:51.273Z,3.94
2019-02-11T07:51:51.251Z,3.88
2019-02-11T07:52:51.257Z,3.92
2019-02-11T07:53:51.244Z,4.01
2019-02-11T07:54:51.242Z,3.94
2019-02-11T07:55:51.265Z,4.08
2019-02-11T07:56:51.230Z,3.94
2019-02-11T07:57:51.280Z,4.00
2019-02-11T07:58:51.983Z,4.03
2019-02-11T07:59:51.216Z,4.07
2019-02-11T08:00:51.208Z,4.04
2019-02-11T08:01:51.249Z,4.00
2019-02-11T08:02:51.287Z,4.08
2019-02-11T08:03:51.199Z,4.10
2019-02-11T08:04:51.202Z,4.07
2019-02-11T08:05:51.186Z,4.07
2019-02-11T08:06:51.185Z,4.06
2019-02-11T08:07:51.222Z,4.14
2019-02-11T08:08:51.168Z,4.07
2019-02-11T08:09:51.162Z,4.07
2019-02-11T08:10:51.165Z,4.18
2019-02-11T08:11:51.164Z,4.18
2019-02-11T08:12:52.258Z,4.19
2019-02-11T08:13:51.179Z,4.18
2019-02-11T08:14:51.138Z,4.24
2019-02-11T08:15:51.129Z,4.25
2019-02-11T08:16:51.133Z,4.21
2019-02-11T08:17:51.121Z,4.28
2019-02-11T08:18:51.123Z,4.29
2019-02-11T08:19:51.164Z,4.25
2019-02-11T08:20:51.104Z,4.21
2019-02-11T08:21:51.107Z,4.16
2019-02-11T08:22:51.144Z,4.19
2019-02-11T08:23:51.096Z,4.22
2019-02-11T08:24:51.090Z,4.15
2019-02-11T08:25:51.080Z,4.15
2019-02-11T08:26:51.076Z,4.15
2019-02-11T08:27:51.117Z,4.14
2019-02-11T08:28:51.069Z,4.10
2019-02-11T08:29:51.072Z,4.15
2019-02-11T08:30:51.062Z,4.12
2019-02-11T08:31:51.068Z,4.15
2019-02-11T08:32:51.087Z,4.22
2019-02-11T08:33:51.054Z,4.29
2019-02-11T08:34:51.045Z,4.37
2019-02-11T08:35:51.036Z,4.37
2019-02-11T08:36:51.039Z,4.43
2019-02-11T08:37:51.072Z,4.54
2019-02-11T08:38:51.075Z,4.69
2019-02-11T08:39:51.027Z,4.75
2019-02-11T08:40:51.015Z,4.95
2019-02-11T08:41:51.009Z,5.14
2019-02-11T08:42:51.059Z,5.28
2019-02-11T08:43:51.006Z,5.20
2019-02-11T08:44:51.002Z,5.13
2019-02-11T08:45:50.994Z,5.02
2019-02-11T08:46:50.995Z,5.01
2019-02-11T08:47:51.031Z,4.84
2019-02-11T08:48:50.990Z,4.98
2019-02-11T08:49:50.976Z,4.94
2019-02-11T08:50:50.981Z,4.92
2019-02-11T08:51:50.977Z,4.99
2019-02-11T08:52:50.974Z,5.05
2019-02-11T08:53:51.021Z,5.16
2019-02-11T08:54:50.965Z,5.23
2019-02-11T08:55:50.965Z,5.43
2019-02-11T08:56:50.962Z,5.50
2019-02-11T08:57:51.001Z,5.74
2019-02-11T08:58:52.679Z,5.68
2019-02-11T08:59:50.963Z,5.73
2019-02-11T09:00:51.048Z,5.56
2019-02-11T09:01:53.228Z,5.57
2019-02-11T09:02:50.972Z,5.49
2019-02-11T09:03:50.979Z,5.43
2019-02-11T09:04:50.936Z,5.48
2019-02-11T09:05:50.924Z,5.49
2019-02-11T09:06:50.927Z,5.34
2019-02-11T09:07:50.939Z,5.38
2019-02-11T09:08:50.951Z,5.37
2019-02-11T09:09:50.933Z,5.40
2019-02-11T09:10:50.907Z,5.40
2019-02-11T09:11:50.904Z,5.30
2019-02-11T09:12:50.906Z,5.32
2019-02-11T09:13:50.900Z,5.27
2019-02-11T09:14:50.960Z,5.28
2019-02-11T09:15:55.379Z,5.27
2019-02-11T09:16:50.894Z,5.25
2019-02-11T09:17:50.893Z,5.31
2019-02-11T09:18:50.952Z,5.27
2019-02-11T09:19:50.895Z,5.28
2019-02-11T09:20:50.925Z,5.28
2019-02-11T09:21:50.872Z,5.10
2019-02-11T09:22:50.867Z,4.99
2019-02-11T09:23:50.911Z,5.02
2019-02-11T09:24:50.862Z,4.96
2019-02-11T09:25:50.862Z,4.86
2019-02-11T09:26:50.862Z,4.77
2019-02-11T09:27:50.862Z,4.65
2019-02-11T09:28:50.856Z,4.65
2019-02-11T09:29:50.877Z,4.62
2019-02-11T09:30:50.835Z,4.55
2019-02-11T09:31:50.847Z,4.57
2019-02-11T09:32:50.854Z,4.55
2019-02-11T09:33:50.841Z,4.58
2019-02-11T09:34:50.864Z,4.61
2019-02-11T09:35:50.832Z,4.72
2019-02-11T09:36:50.794Z,4.72
2019-02-11T09:37:50.813Z,4.69
2019-02-11T09:38:50.815Z,4.65
2019-02-11T09:39:50.798Z,4.76
2019-02-11T09:40:50.841Z,4.70
2019-02-11T09:41:50.795Z,4.72
2019-02-11T09:42:50.794Z,4.76
2019-02-11T09:43:50.780Z,4.79
2019-02-11T09:44:50.819Z,4.80
2019-02-11T09:45:50.771Z,4.76
2019-02-11T09:46:50.777Z,4.79
2019-02-11T09:47:50.762Z,4.77
2019-02-11T09:48:50.764Z,4.88
2019-02-11T09:49:50.760Z,4.79
2019-02-11T09:50:50.804Z,4.75
2019-02-11T09:51:50.746Z,4.92
2019-02-11T09:52:50.834Z,4.89
2019-02-11T09:53:50.774Z,5.02
2019-02-11T09:54:50.745Z,5.07
2019-02-11T09:55:50.730Z,5.19
2019-02-11T09:56:50.771Z,5.13
2019-02-11T09:57:50.719Z,5.22
2019-02-11T09:58:50.754Z,5.22
2019-02-11T09:59:50.714Z,5.59
2019-02-11T10:00:50.715Z,5.95
2019-02-11T10:01:50.706Z,5.81
2019-02-11T10:02:50.745Z,5.83
2019-02-11T10:03:50.748Z,6.00
2019-02-11T10:04:50.694Z,6.46
2019-02-11T10:05:50.688Z,6.87
2019-02-11T10:06:50.689Z,6.90
2019-02-11T10:07:50.690Z,7.35
2019-02-11T10:08:50.739Z,7.37
2019-02-11T10:09:50.693Z,7.32
2019-02-11T10:10:50.689Z,7.60
2019-02-11T10:11:50.686Z,7.52
2019-02-11T10:12:50.687Z,7.40
2019-02-11T10:13:50.725Z,7.05
2019-02-11T10:14:50.743Z,6.61
2019-02-11T10:15:50.686Z,6.47
2019-02-11T10:16:50.688Z,6.54
2019-02-11T10:17:50.694Z,6.38
2019-02-11T10:18:50.725Z,6.36
2019-02-11T10:19:50.698Z,6.11
2019-02-11T10:20:50.725Z,5.98
2019-02-11T10:21:50.688Z,6.03
2019-02-11T10:22:50.691Z,5.91
2019-02-11T10:23:50.691Z,5.96
2019-02-11T10:24:50.689Z,5.85
2019-02-11T10:25:50.724Z,5.74
2019-02-11T10:26:50.677Z,5.73
2019-02-11T10:27:50.677Z,5.60
2019-02-11T10:28:50.690Z,5.55
2019-02-11T10:29:50.679Z,5.52
2019-02-11T10:30:50.705Z,5.48
2019-02-11T10:31:50.668Z,5.41
2019-02-11T10:32:50.664Z,5.46
2019-02-11T10:33:50.665Z,5.41
2019-02-11T10:34:50.663Z,5.30
2019-02-11T10:35:50.693Z,5.32
2019-02-11T10:36:50.657Z,5.28
2019-02-11T10:37:50.657Z,5.31
2019-02-11T10:38:50.650Z,5.22
2019-02-11T10:39:50.652Z,5.31
2019-02-11T10:40:50.684Z,5.16
2019-02-11T10:41:50.682Z,5.25
2019-02-11T10:42:50.642Z,5.13
2019-02-11T10:43:50.637Z,5.16
2019-02-11T10:44:50.627Z,5.17
2019-02-11T10:45:50.631Z,5.19
2019-02-11T10:46:50.662Z,5.25
2019-02-11T10:47:50.617Z,5.31
2019-02-11T10:48:50.614Z,5.30
2019-02-11T10:49:50.617Z,5.31
2019-02-11T10:50:50.609Z,5.32
2019-02-11T10:51:50.642Z,5.28
2019-02-11T10:52:50.640Z,5.38
2019-02-11T10:53:50.592Z,5.32
2019-02-11T10:54:50.587Z,5.35
2019-02-11T10:55:50.590Z,5.35
2019-02-11T10:56:50.624Z,5.30
2019-02-11T10:57:50.580Z,5.27
2019-02-11T10:58:50.701Z,5.37
2019-02-11T10:59:50.579Z,5.34
2019-02-11T11:00:50.588Z,5.38
2019-02-11T11:01:50.600Z,5.34
2019-02-11T11:02:50.559Z,5.34
2019-02-11T11:03:50.560Z,5.25
2019-02-11T11:04:50.556Z,5.38
2019-02-11T11:05:50.548Z,5.25
2019-02-11T11:06:50.586Z,5.30
2019-02-11T11:07:50.539Z,5.35
2019-02-11T11:08:50.538Z,5.28
2019-02-11T11:09:50.536Z,5.25
2019-02-11T11:10:50.532Z,5.17
2019-02-11T11:11:50.574Z,5.27
2019-02-11T11:12:50.527Z,5.31
2019-02-11T11:13:50.515Z,5.28
2019-02-11T11:14:50.521Z,5.31
2019-02-11T11:15:50.506Z,5.35
2019-02-11T11:16:50.545Z,5.32
2019-02-11T11:17:50.500Z,5.23
2019-02-11T11:18:50.495Z,5.30
2019-02-11T11:21:22.249Z,5.27
2019-02-11T11:22:22.242Z,5.27
2019-02-11T11:23:22.210Z,5.20
2019-02-11T11:24:22.208Z,5.25
2019-02-11T11:25:22.203Z,5.32
2019-02-11T11:26:22.201Z,5.38
2019-02-11T11:27:22.229Z,5.50
2019-02-11T11:28:22.190Z,5.40
2019-02-11T11:29:22.189Z,5.35
2019-02-11T11:30:22.189Z,5.37
2019-02-11T11:31:22.180Z,5.38
2019-02-11T11:32:22.204Z,5.30
2019-02-11T11:33:22.173Z,5.28
2019-02-11T11:34:22.169Z,5.34
2019-02-11T11:35:22.165Z,5.37
2019-02-11T11:36:22.158Z,5.32
2019-02-11T11:37:22.192Z,5.37
2019-02-11T11:38:22.152Z,5.37
2019-02-11T11:39:22.151Z,5.37
2019-02-11T11:40:22.143Z,5.37
2019-02-11T11:41:22.302Z,5.35
2019-02-11T11:42:22.163Z,5.34
2019-02-11T11:43:22.133Z,5.34
2019-02-11T11:44:22.130Z,5.38
2019-02-11T11:45:22.123Z,5.38
2019-02-11T11:46:22.118Z,5.35
2019-02-11T11:47:22.142Z,5.38
2019-02-11T11:48:22.118Z,5.45
2019-02-11T11:49:22.109Z,5.46
2019-02-11T11:50:22.102Z,5.41
2019-02-11T11:51:22.098Z,5.48
2019-02-11T11:52:22.132Z,5.52
2019-02-11T11:53:22.093Z,5.53
2019-02-11T11:54:22.094Z,5.59
2019-02-11T11:55:22.085Z,5.52
2019-02-11T11:56:22.103Z,5.60
2019-02-11T11:57:22.100Z,5.57
2019-02-11T11:58:22.076Z,5.63
2019-02-11T11:59:22.074Z,5.63
2019-02-11T12:00:22.080Z,5.59
2019-02-11T12:01:22.063Z,5.55
2019-02-11T12:02:22.088Z,5.55
2019-02-11T12:03:22.056Z,5.57
2019-02-11T12:04:22.061Z,5.60
2019-02-11T12:05:22.050Z,5.64
2019-02-11T12:06:25.094Z,5.59
2019-02-11T12:07:22.200Z,5.56
2019-02-11T12:08:22.038Z,5.63
2019-02-11T12:09:22.050Z,5.63
2019-02-11T12:10:22.041Z,5.53
2019-02-11T12:11:22.027Z,5.59
2019-02-11T12:12:22.057Z,5.60
2019-02-11T12:13:23.636Z,5.70
2019-02-11T12:14:22.018Z,5.75
2019-02-11T12:15:22.028Z,5.63
2019-02-11T12:16:22.010Z,5.63
2019-02-11T12:17:22.038Z,5.59
2019-02-11T12:18:22.000Z,5.48
2019-02-11T12:19:21.996Z,5.41
2019-02-11T12:20:22.044Z,5.31
2019-02-11T12:21:21.997Z,5.22
2019-02-11T12:22:22.035Z,5.37
2019-02-11T12:23:21.991Z,5.27
2019-02-11T12:24:21.978Z,5.40
2019-02-11T12:25:21.981Z,5.46
2019-02-11T12:26:21.975Z,5.43
2019-02-11T12:27:22.063Z,5.49
2019-02-11T12:28:21.991Z,5.49
2019-02-11T12:29:21.963Z,5.48
2019-02-11T12:30:21.959Z,5.37
2019-02-11T12:31:21.955Z,5.35
2019-02-11T12:32:21.953Z,5.37
2019-02-11T12:33:21.992Z,5.25
2019-02-11T12:34:21.935Z,5.35
2019-02-11T12:35:21.942Z,5.28
2019-02-11T12:36:21.936Z,5.22
2019-02-11T12:37:21.930Z,5.17
2019-02-11T12:38:21.986Z,5.14
2019-02-11T12:39:21.927Z,5.14
2019-02-11T12:40:21.913Z,5.16
2019-02-11T12:41:21.916Z,5.17
2019-02-11T12:42:21.919Z,5.28
2019-02-11T12:43:21.944Z,5.30
2019-02-11T12:44:21.900Z,5.31
2019-02-11T12:45:21.915Z,5.30
2019-02-11T12:46:21.902Z,5.37
2019-02-11T12:47:21.892Z,5.38
2019-02-11T12:48:21.916Z,5.41
2019-02-11T12:49:21.880Z,5.38
2019-02-11T12:50:21.875Z,5.38
2019-02-11T12:51:21.873Z,5.30
2019-02-11T12:52:21.874Z,5.34
2019-02-11T12:53:21.896Z,5.31
2019-02-11T12:54:21.963Z,5.28
2019-02-11T12:55:21.884Z,5.31
2019-02-11T12:56:21.860Z,5.19
2019-02-11T12:57:21.855Z,5.28
2019-02-11T12:58:21.877Z,5.28
2019-02-11T12:59:21.850Z,5.34
2019-02-11T13:00:21.848Z,5.22
2019-02-11T13:01:21.837Z,5.28
2019-02-11T13:02:21.844Z,5.25
2019-02-11T13:03:21.854Z,5.30
2019-02-11T13:04:21.823Z,5.25
2019-02-11T13:05:23.850Z,5.27
2019-02-11T13:06:21.817Z,5.48
2019-02-11T13:07:21.815Z,5.45
2019-02-11T13:08:21.838Z,5.57
2019-02-11T13:09:21.816Z,5.60
2019-02-11T13:10:21.806Z,5.64
2019-02-11T13:11:21.800Z,5.64
2019-02-11T13:12:21.793Z,5.74
2019-02-11T13:13:21.823Z,5.67
2019-02-11T13:14:21.785Z,5.74
2019-02-11T13:15:53.337Z,5.74
2019-02-11T13:16:21.782Z,5.78
2019-02-11T13:17:33.400Z,5.81
2019-02-11T13:18:22.021Z,5.92
2019-02-11T13:19:21.789Z,5.78
2019-02-11T13:20:21.780Z,5.82